Time;durP1;ratioP1;P1;durP2;ratioP2;P2;SDS_P1;SDS_P2;PMS_P1;PMS_P2;Temp;Humidity;BMP_temperature;BMP_pressure;BME280_temperature;BME280_humidity;BME280_pressure;Samples;Min_cycle;Max_cycle;Signal;HPM_P1;HPM_P2
2022/11/08 05:09:00;;;;;;;6.18;2.70;;;7.40;99.90;;;;;;5834117;23;20048;-81
2022/11/08 05:11:28;;;;;;;5.45;2.55;;;7.40;99.90;;;;;;4927313;29;20083;-81
2022/11/08 05:13:55;;;;;;;3.38;2.28;;;7.30;99.90;;;;;;4919150;29;20052;-81
2022/11/08 05:16:25;;;;;;;4.22;2.75;;;7.30;99.90;;;;;;4919248;29;20071;-81
2022/11/08 05:18:52;;;;;;;4.95;2.53;;;7.30;99.90;;;;;;4918175;29;20448;-80
2022/11/08 05:24:07;;;;;;;3.63;2.58;;;7.30;99.90;;;;;;4919216;29;20063;-80
2022/11/08 05:26:36;;;;;;;6.00;2.83;;;7.30;99.90;;;;;;4917508;29;20063;-80
2022/11/08 05:29:03;;;;;;;4.53;2.88;;;7.30;99.90;;;;;;4920896;29;20059;-81
2022/11/08 05:31:30;;;;;;;5.00;2.60;;;7.30;99.90;;;;;;4923721;29;20051;-80
2022/11/08 05:33:58;;;;;;;7.05;2.28;;;7.30;99.90;;;;;;4917824;29;20068;-83
2022/11/08 05:36:26;;;;;;;5.30;2.83;;;7.30;99.90;;;;;;4911921;29;20075;-79
2022/11/08 05:38:53;;;;;;;4.18;2.85;;;7.30;99.90;;;;;;4914838;29;20054;-78
2022/11/08 05:41:22;;;;;;;3.90;2.42;;;7.30;99.90;;;;;;4913785;29;20048;-78
2022/11/08 05:43:51;;;;;;;4.50;2.33;;;7.30;99.90;;;;;;4915382;29;20050;-79
2022/11/08 05:46:19;;;;;;;5.30;3.00;;;7.30;99.90;;;;;;4918656;29;20059;-78
2022/11/08 05:48:46;;;;;;;4.53;2.65;;;7.40;99.90;;;;;;4920754;29;20052;-78
2022/11/08 05:51:15;;;;;;;4.05;2.75;;;7.30;99.90;;;;;;4921366;29;20516;-78
2022/11/08 05:53:42;;;;;;;7.18;3.15;;;7.40;99.90;;;;;;4914631;29;20044;-78
2022/11/08 05:56:08;;;;;;;5.18;3.03;;;7.30;99.90;;;;;;4913629;29;20403;-78
2022/11/08 05:58:35;;;;;;;4.85;3.25;;;7.40;99.90;;;;;;4917918;29;20052;-78
2022/11/08 06:01:04;;;;;;;12.00;3.53;;;7.30;99.90;;;;;;4918123;29;20531;-79
2022/11/08 06:03:32;;;;;;;4.32;2.63;;;7.40;99.90;;;;;;4918185;29;20056;-78
2022/11/08 06:06:06;;;;;;;5.80;2.42;;;7.40;99.90;;;;;;4919500;29;20052;-78
2022/11/08 06:08:34;;;;;;;6.30;2.60;;;7.30;99.90;;;;;;4921837;29;20052;-77
2022/11/08 06:11:09;;;;;;;4.90;2.50;;;7.40;99.90;;;;;;4925440;29;20052;-78
2022/11/08 06:13:36;;;;;;;3.90;2.45;;;7.40;99.90;;;;;;4923462;29;20044;-77
2022/11/08 06:16:08;;;;;;;5.47;2.95;;;7.40;99.90;;;;;;4924709;29;20134;-78
2022/11/08 06:18:36;;;;;;;11.57;4.68;;;7.40;99.90;;;;;;4922915;29;20054;-79
2022/11/08 06:21:04;;;;;;;6.03;3.58;;;7.40;99.90;;;;;;4921947;29;20694;-79
2022/11/08 06:23:32;;;;;;;9.02;4.72;;;7.40;99.90;;;;;;4919136;29;20060;-78
2022/11/08 06:25:59;;;;;;;9.25;5.68;;;7.40;99.90;;;;;;4918688;29;20079;-78
2022/11/08 06:28:26;;;;;;;7.28;4.00;;;7.40;99.90;;;;;;4919960;29;20052;-79
2022/11/08 06:30:53;;;;;;;8.15;4.10;;;7.40;99.90;;;;;;4920682;29;20058;-79
2022/11/08 06:33:20;;;;;;;6.00;3.38;;;7.50;99.90;;;;;;4921904;29;20056;-78
2022/11/08 06:35:47;;;;;;;6.90;3.55;;;7.50;99.90;;;;;;4925550;29;20082;-78
2022/11/08 06:38:14;;;;;;;6.70;2.97;;;7.50;99.90;;;;;;4933628;29;20087;-80
2022/11/08 06:40:41;;;;;;;9.23;2.75;;;7.50;99.90;;;;;;4919810;29;20058;-79
2022/11/08 06:43:10;;;;;;;5.43;2.45;;;7.50;99.90;;;;;;4919449;29;20062;-78
2022/11/08 06:45:44;;;;;;;4.93;2.97;;;7.50;99.90;;;;;;4902573;29;20067;-78
2022/11/08 06:48:11;;;;;;;3.28;2.20;;;7.50;99.90;;;;;;4919387;29;20052;-81
2022/11/08 06:50:38;;;;;;;4.90;2.40;;;7.50;99.90;;;;;;4919261;29;20048;-78
2022/11/08 06:53:06;;;;;;;5.13;2.58;;;7.50;99.90;;;;;;4919127;29;20136;-81
2022/11/08 06:55:34;;;;;;;4.97;2.70;;;7.60;99.90;;;;;;4920104;29;20052;-81
2022/11/08 06:58:01;;;;;;;5.38;2.88;;;7.60;99.90;;;;;;4919887;29;20052;-80
2022/11/08 07:00:28;;;;;;;5.50;2.75;;;7.60;99.90;;;;;;4921219;29;20056;-81
2022/11/08 07:02:57;;;;;;;8.88;3.28;;;7.60;99.90;;;;;;4919336;29;20056;-81
2022/11/08 07:05:25;;;;;;;8.85;3.65;;;7.70;99.90;;;;;;4920336;29;20584;-80
2022/11/08 07:07:52;;;;;;;4.47;2.60;;;7.70;99.90;;;;;;4920269;29;20056;-80
2022/11/08 07:10:21;;;;;;;4.40;2.83;;;7.80;99.90;;;;;;4919715;29;20051;-81
2022/11/08 07:12:56;;;;;;;7.20;3.20;;;7.80;99.90;;;;;;4920284;29;20136;-80
2022/11/08 07:15:23;;;;;;;6.53;3.20;;;7.80;99.90;;;;;;4920433;29;20107;-81
2022/11/08 07:17:50;;;;;;;3.90;2.92;;;7.90;99.90;;;;;;4919906;29;20127;-81
2022/11/08 07:20:16;;;;;;;7.15;3.70;;;7.90;99.90;;;;;;4920269;29;20055;-81
2022/11/08 07:22:43;;;;;;;5.90;3.65;;;7.90;99.90;;;;;;4920246;29;20079;-80
2022/11/08 07:25:10;;;;;;;6.47;3.80;;;8.00;99.90;;;;;;4920809;29;20048;-81
2022/11/08 07:27:36;;;;;;;4.55;3.50;;;8.00;99.90;;;;;;4920039;29;20048;-80
2022/11/08 07:30:04;;;;;;;6.25;3.20;;;8.10;99.90;;;;;;4919661;29;20048;-80
2022/11/08 07:32:31;;;;;;;6.32;3.53;;;8.10;99.90;;;;;;4916475;29;20073;-79
2022/11/08 07:34:58;;;;;;;5.15;3.30;;;8.20;99.90;;;;;;4921731;29;20048;-79
2022/11/08 07:37:24;;;;;;;5.93;3.85;;;8.20;99.90;;;;;;4928155;29;20052;-79
2022/11/08 07:39:51;;;;;;;5.00;3.47;;;8.30;99.90;;;;;;4924782;29;20059;-79
2022/11/08 07:42:18;;;;;;;4.32;3.22;;;8.30;99.90;;;;;;4930537;29;20139;-79
2022/11/08 07:44:44;;;;;;;7.65;4.45;;;8.40;99.90;;;;;;4927848;29;20060;-79
2022/11/08 07:47:11;;;;;;;6.32;3.95;;;8.40;99.90;;;;;;4924934;29;20611;-81
2022/11/08 07:49:38;;;;;;;7.63;3.65;;;8.50;99.90;;;;;;4919375;29;20056;-81
2022/11/08 07:52:04;;;;;;;8.35;3.80;;;8.50;99.90;;;;;;4921161;29;20418;-81
2022/11/08 07:54:31;;;;;;;10.90;4.10;;;8.60;99.90;;;;;;4922126;29;20048;-80
2022/11/08 07:56:58;;;;;;;6.95;3.95;;;8.60;99.90;;;;;;4919523;29;20150;-81
2022/11/08 07:59:25;;;;;;;9.80;3.75;;;8.60;99.90;;;;;;4919941;29;20143;-80
2022/11/08 08:01:51;;;;;;;6.57;3.85;;;8.70;99.90;;;;;;4920628;29;20058;-81
2022/11/08 08:04:18;;;;;;;6.88;4.03;;;8.70;99.90;;;;;;4921673;29;20059;-81
2022/11/08 08:06:45;;;;;;;7.05;3.60;;;8.80;99.90;;;;;;4924878;29;20091;-80
2022/11/08 08:09:11;;;;;;;6.38;3.47;;;8.80;99.90;;;;;;4924456;29;20048;-81
2022/11/08 08:11:38;;;;;;;6.38;3.55;;;8.90;99.90;;;;;;4926600;29;20054;-79
2022/11/08 08:14:05;;;;;;;7.00;2.97;;;9.00;99.90;;;;;;4927267;29;20047;-79
2022/11/08 08:16:31;;;;;;;7.20;2.80;;;9.00;99.90;;;;;;4928023;29;20079;-79
2022/11/08 08:18:58;;;;;;;4.55;2.67;;;9.10;99.90;;;;;;4927378;29;20134;-80
2022/11/08 08:21:25;;;;;;;4.40;2.30;;;9.20;99.90;;;;;;4923358;29;20063;-81
2022/11/08 08:23:52;;;;;;;4.90;2.83;;;9.30;99.90;;;;;;4923533;29;20474;-80
2022/11/08 08:26:18;;;;;;;5.22;2.40;;;9.40;99.90;;;;;;4922106;29;20052;-80
2022/11/08 08:28:45;;;;;;;8.60;2.70;;;9.50;99.90;;;;;;4923305;29;20056;-80
2022/11/08 08:31:11;;;;;;;2.90;2.03;;;9.60;99.90;;;;;;4923308;29;20063;-80
2022/11/08 08:33:38;;;;;;;6.72;2.90;;;9.70;99.90;;;;;;4921205;29;20143;-80
2022/11/08 08:36:05;;;;;;;8.80;2.35;;;9.80;99.90;;;;;;4922474;29;20054;-80
2022/11/08 08:38:33;;;;;;;5.25;2.00;;;9.90;99.90;;;;;;4923023;29;20074;-81
2022/11/08 08:41:01;;;;;;;5.13;2.50;;;10.10;99.90;;;;;;4928605;29;20123;-78
2022/11/08 08:43:31;;;;;;;8.00;3.25;;;10.20;99.90;;;;;;4928423;29;20549;-78
2022/11/08 08:46:02;;;;;;;5.97;3.33;;;10.20;99.90;;;;;;4928019;29;20052;-78
2022/11/08 08:48:29;;;;;;;7.43;3.28;;;10.10;99.90;;;;;;4926163;29;20111;-78
2022/11/08 08:50:56;;;;;;;5.47;3.13;;;10.10;99.90;;;;;;4926530;29;20099;-78
2022/11/08 08:53:22;;;;;;;4.45;3.17;;;10.10;99.90;;;;;;4926179;29;20181;-78
2022/11/08 08:55:52;;;;;;;5.70;3.25;;;10.10;99.90;;;;;;4926284;29;20108;-80
2022/11/08 08:58:20;;;;;;;7.05;3.95;;;10.00;99.90;;;;;;4926226;29;20091;-78
2022/11/08 09:00:47;;;;;;;7.53;3.13;;;10.00;99.90;;;;;;4925082;29;20051;-79
2022/11/08 09:03:35;;;;;;;5.90;3.10;;;10.00;99.90;;;;;;4923032;29;20399;-80
2022/11/08 09:06:02;;;;;;;5.18;3.17;;;10.00;99.90;;;;;;4923544;29;20147;-80
2022/11/08 09:08:29;;;;;;;6.47;3.78;;;9.90;99.90;;;;;;4922903;29;20063;-80
2022/11/08 09:10:58;;;;;;;9.55;4.00;;;9.90;99.90;;;;;;4922936;29;20052;-80
2022/11/08 09:13:26;;;;;;;8.95;4.20;;;9.90;99.90;;;;;;4922799;29;20063;-79
2022/11/08 09:15:54;;;;;;;8.15;4.80;;;9.90;99.90;;;;;;4921966;29;20131;-80
2022/11/08 09:18:21;;;;;;;10.02;4.97;;;9.90;99.90;;;;;;4904897;29;20143;-79
2022/11/08 09:20:48;;;;;;;12.55;5.20;;;10.00;99.90;;;;;;4922071;29;20498;-79
2022/11/08 09:23:16;;;;;;;7.65;4.47;;;10.00;99.90;;;;;;4923245;29;20509;-80
2022/11/08 09:25:43;;;;;;;12.18;5.05;;;10.00;99.90;;;;;;4920319;29;20426;-80
2022/11/08 09:28:10;;;;;;;7.95;4.55;;;10.00;99.90;;;;;;4922480;29;20051;-79
2022/11/08 09:30:37;;;;;;;11.57;6.00;;;10.00;99.90;;;;;;4925947;29;20135;-79
2022/11/08 09:33:04;;;;;;;9.23;4.13;;;10.10;99.90;;;;;;4922938;29;20153;-80
2022/11/08 09:35:31;;;;;;;9.20;4.18;;;10.10;99.90;;;;;;4922851;29;20088;-79
2022/11/08 09:37:58;;;;;;;9.77;4.15;;;10.10;99.90;;;;;;4922076;29;20048;-79
2022/11/08 09:40:54;;;;;;;8.10;4.82;;;10.20;99.90;;;;;;4921065;29;20060;-79
2022/11/08 09:43:29;;;;;;;11.02;4.35;;;10.30;99.90;;;;;;4912073;29;20092;-79
2022/11/08 09:45:56;;;;;;;9.45;3.45;;;10.40;99.90;;;;;;4921305;29;20139;-79
2022/11/08 09:48:32;;;;;;;7.10;3.45;;;10.50;99.90;;;;;;4920750;29;20112;-79
2022/11/08 09:51:24;;;;;;;2.67;1.85;;;10.70;99.90;;;;;;4918430;29;20054;-79
2022/11/08 09:53:51;;;;;;;8.27;3.50;;;10.90;99.90;;;;;;4921498;29;20150;-80
2022/11/08 09:56:22;;;;;;;5.38;2.60;;;11.00;99.90;;;;;;4920736;29;20143;-80
2022/11/08 09:58:53;;;;;;;4.28;1.90;;;11.20;99.90;;;;;;4917866;29;20074;-79
2022/11/08 10:01:21;;;;;;;2.53;0.90;;;11.30;99.90;;;;;;4920760;29;20532;-79
2022/11/08 10:03:56;;;;;;;2.42;0.60;;;11.70;99.90;;;;;;4917113;29;20056;-79
2022/11/08 10:06:32;;;;;;;0.90;0.60;;;12.00;99.90;;;;;;4920378;29;20092;-79
2022/11/08 10:09:13;;;;;;;1.77;1.10;;;12.20;99.90;;;;;;4919762;29;20052;-79
2022/11/08 10:12:15;;;;;;;1.50;1.20;;;12.30;99.90;;;;;;4919465;29;20131;-79
2022/11/08 10:15:11;;;;;;;3.67;1.45;;;12.60;99.90;;;;;;4879228;29;20059;-80
2022/11/08 10:17:40;;;;;;;4.60;1.80;;;12.80;99.90;;;;;;4919791;29;20052;-80
2022/11/08 10:20:07;;;;;;;4.43;1.63;;;12.90;99.90;;;;;;4920080;29;20048;-79
2022/11/08 10:22:48;;;;;;;5.03;1.83;;;13.00;99.90;;;;;;4919152;29;20056;-79
2022/11/08 10:25:24;;;;;;;3.65;1.40;;;13.10;99.90;;;;;;4918486;29;20131;-80
2022/11/08 10:28:00;;;;;;;2.35;1.00;;;13.30;99.90;;;;;;4916522;29;20083;-79
2022/11/08 10:30:35;;;;;;;2.50;1.08;;;13.50;99.90;;;;;;4914124;29;20056;-79
2022/11/08 10:33:18;;;;;;;8.20;1.35;;;13.80;99.90;;;;;;4918122;29;20048;-80
2022/11/08 10:36:10;;;;;;;1.17;0.90;;;13.90;99.90;;;;;;4915858;29;20066;-80
2022/11/08 10:38:45;;;;;;;1.73;0.80;;;14.10;99.90;;;;;;4918256;29;20056;-79
2022/11/08 10:41:24;;;;;;;5.00;1.25;;;14.20;99.90;;;;;;4919405;29;20131;-80
2022/11/08 10:44:03;;;;;;;2.45;1.20;;;14.40;99.90;;;;;;4919024;29;20056;-80
2022/11/08 10:46:52;;;;;;;5.68;1.67;;;14.50;99.90;;;;;;4919318;29;20052;-80
2022/11/08 10:49:31;;;;;;;9.63;2.05;;;14.60;99.90;;;;;;4917955;29;20056;-80
2022/11/08 10:52:00;;;;;;;4.13;1.30;;;14.80;99.90;;;;;;4917594;29;20052;-79
2022/11/08 10:54:50;;;;;;;3.17;1.38;;;14.80;99.90;;;;;;4916821;29;20044;-80
2022/11/08 10:57:32;;;;;;;1.42;0.80;;;15.00;99.90;;;;;;4913534;29;20086;-79
2022/11/08 11:00:27;;;;;;;3.00;0.90;;;15.20;99.90;;;;;;4917616;29;20078;-79
2022/11/08 11:03:01;;;;;;;3.60;0.80;;;15.30;99.90;;;;;;4917840;29;20625;-79
2022/11/08 11:05:34;;;;;;;4.10;0.90;;;15.50;99.90;;;;;;4918124;29;20067;-80
2022/11/08 11:08:07;;;;;;;2.10;0.90;;;15.60;99.90;;;;;;4916795;29;20052;-80
2022/11/08 11:10:46;;;;;;;4.50;0.90;;;15.70;99.90;;;;;;4919520;29;20052;-80
2022/11/08 11:13:26;;;;;;;0.85;0.68;;;15.80;99.90;;;;;;4918101;29;20052;-80
2022/11/08 11:15:59;;;;;;;0.70;0.65;;;15.90;99.90;;;;;;4917837;29;20413;-79
2022/11/08 11:18:35;;;;;;;2.80;0.70;;;16.00;99.90;;;;;;4918719;29;20056;-79
2022/11/08 11:21:17;;;;;;;6.38;0.93;;;16.00;99.90;;;;;;4917233;29;20139;-80
2022/11/08 11:23:52;;;;;;;0.82;0.57;;;16.00;99.90;;;;;;4917054;29;20066;-79
2022/11/08 11:26:28;;;;;;;3.40;1.23;;;16.00;99.90;;;;;;4918727;29;20052;-80
2022/11/08 11:29:03;;;;;;;1.67;0.68;;;16.00;99.90;;;;;;4914128;29;20060;-82
2022/11/08 11:31:36;;;;;;;1.15;0.80;;;16.00;99.90;;;;;;4917945;29;20413;-82
2022/11/08 11:34:17;;;;;;;1.00;0.80;;;15.90;99.90;;;;;;4918488;29;20158;-83
2022/11/08 11:37:04;;;;;;;3.65;1.77;;;15.80;99.90;;;;;;4919232;29;20056;-82
2022/11/08 11:39:34;;;;;;;3.33;1.80;;;15.80;99.90;;;;;;4914556;29;20052;-82
2022/11/08 11:42:30;;;;;;;2.10;1.13;;;15.80;99.90;;;;;;4918949;29;20056;-83
2022/11/08 11:45:29;;;;;;;1.80;1.00;;;15.80;99.90;;;;;;4932073;29;20425;-82
2022/11/08 11:48:01;;;;;;;4.30;1.65;;;15.70;99.90;;;;;;4918584;29;20056;-82
2022/11/08 11:50:35;;;;;;;5.00;1.00;;;15.80;99.90;;;;;;4920096;29;20052;-82
2022/11/08 11:53:27;;;;;;;5.07;0.70;;;15.80;99.90;;;;;;4918345;29;20068;-82
2022/11/08 11:56:21;;;;;;;1.75;0.80;;;15.80;99.90;;;;;;4919944;29;20107;-82
2022/11/08 11:59:26;;;;;;;1.25;0.68;;;15.90;99.90;;;;;;4919920;29;20498;-82
2022/11/08 12:02:11;;;;;;;2.25;0.70;;;16.00;99.90;;;;;;4904483;29;20430;-81
2022/11/08 12:04:47;;;;;;;6.35;1.00;;;16.10;99.90;;;;;;4921875;29;20072;-83
2022/11/08 12:07:23;;;;;;;2.78;0.68;;;16.20;99.90;;;;;;4918776;29;20056;-82
2022/11/08 12:10:17;;;;;;;1.33;0.60;;;16.40;99.90;;;;;;4918443;29;20506;-82
2022/11/08 12:12:57;;;;;;;3.35;0.65;;;16.50;99.90;;;;;;4919477;29;20116;-82
2022/11/08 12:15:40;;;;;;;3.70;0.73;;;16.60;99.90;;;;;;4919826;29;20052;-82
2022/11/08 12:18:33;;;;;;;1.83;0.80;;;16.70;99.90;;;;;;4919916;29;20058;-81
2022/11/08 12:21:51;;;;;;;1.85;0.63;;;16.60;99.90;;;;;;4919629;29;20064;-82
2022/11/08 12:24:29;;;;;;;1.65;0.60;;;16.70;99.90;;;;;;4919536;29;20067;-82
2022/11/08 12:27:05;;;;;;;1.17;0.70;;;16.70;99.90;;;;;;4914111;29;20058;-82
2022/11/08 12:29:41;;;;;;;1.10;0.70;;;16.80;99.90;;;;;;4919401;29;20167;-81
2022/11/08 12:32:08;;;;;;;1.20;0.70;;;16.80;99.90;;;;;;4919403;29;20044;-82
2022/11/08 12:34:53;;;;;;;0.95;0.43;;;16.80;99.90;;;;;;4917943;29;20091;-78
2022/11/08 12:37:34;;;;;;;1.83;0.75;;;16.80;99.90;;;;;;4919106;29;20044;-81
2022/11/08 12:40:32;;;;;;;1.65;1.13;;;16.80;99.90;;;;;;4919234;29;20048;-81
2022/11/08 12:43:18;;;;;;;1.85;0.70;;;16.80;99.90;;;;;;4921873;29;20068;-83
2022/11/08 12:45:59;;;;;;;1.95;0.90;;;16.80;99.90;;;;;;4918169;29;20588;-82
2022/11/08 12:48:35;;;;;;;1.92;1.05;;;16.90;99.90;;;;;;4918511;29;20539;-83
2022/11/08 12:51:22;;;;;;;3.05;0.90;;;17.00;99.90;;;;;;4920832;29;20493;-82
2022/11/08 12:54:16;;;;;;;2.13;0.80;;;17.00;99.90;;;;;;4922737;29;20140;-82
2022/11/08 12:56:47;;;;;;;2.25;0.80;;;17.10;99.90;;;;;;4925473;29;20052;-81
2022/11/08 12:59:35;;;;;;;3.33;0.70;;;17.10;99.90;;;;;;4925631;29;20078;-82
2022/11/08 13:02:03;;;;;;;2.65;0.93;;;17.10;99.90;;;;;;4922598;29;20060;-82
2022/11/08 13:04:46;;;;;;;2.08;0.95;;;17.10;99.90;;;;;;4921744;29;20102;-83
2022/11/08 13:07:32;;;;;;;1.50;1.08;;;17.10;99.90;;;;;;4922361;29;20454;-82
2022/11/08 13:10:10;;;;;;;3.13;0.88;;;17.10;99.90;;;;;;4919763;29;20135;-82
2022/11/08 13:13:15;;;;;;;4.53;1.00;;;17.00;99.90;;;;;;4919260;29;20084;-82
2022/11/08 13:16:07;;;;;;;1.08;0.60;;;17.00;99.90;;;;;;4922904;29;20100;-82
2022/11/08 13:18:44;;;;;;;1.55;0.80;;;16.90;99.90;;;;;;4920177;29;20088;-81
2022/11/08 13:21:29;;;;;;;4.65;0.88;;;17.00;99.90;;;;;;4920334;29;20056;-82
2022/11/08 13:24:02;;;;;;;1.40;0.50;;;16.90;99.90;;;;;;4909192;29;20052;-82
2022/11/08 13:26:41;;;;;;;2.72;0.60;;;16.90;99.90;;;;;;4915991;29;20076;-83
2022/11/08 13:29:29;;;;;;;2.63;0.63;;;16.80;99.90;;;;;;4918354;29;20120;-82
2022/11/08 13:31:59;;;;;;;2.42;0.70;;;16.70;99.90;;;;;;4922449;29;20132;-83
2022/11/08 13:34:48;;;;;;;3.40;0.93;;;16.70;99.90;;;;;;4915346;29;20767;-81
2022/11/08 13:37:47;;;;;;;1.50;0.70;;;16.70;99.90;;;;;;4922701;29;20473;-80
2022/11/08 13:40:33;;;;;;;1.10;0.77;;;16.60;99.90;;;;;;4915532;29;20078;-83
2022/11/08 13:43:15;;;;;;;0.90;0.70;;;16.60;99.90;;;;;;4920683;29;20525;-82
2022/11/08 13:45:43;;;;;;;7.38;1.00;;;16.50;99.90;;;;;;4916438;29;20084;-83
2022/11/08 13:48:16;;;;;;;1.27;0.60;;;16.50;99.90;;;;;;4919794;29;20048;-82
2022/11/08 13:50:52;;;;;;;2.30;0.95;;;16.50;99.90;;;;;;4920868;29;20513;-83
2022/11/08 13:53:19;;;;;;;4.20;1.10;;;16.50;99.90;;;;;;4925535;29;20051;-80
2022/11/08 13:55:45;;;;;;;2.65;1.10;;;16.60;99.90;;;;;;4938023;29;20101;-82
2022/11/08 13:58:35;;;;;;;2.92;1.45;;;16.60;99.90;;;;;;4935496;29;20261;-80
2022/11/08 14:01:21;;;;;;;4.78;1.65;;;16.50;99.90;;;;;;4936217;29;20120;-81
2022/11/08 14:03:52;;;;;;;5.38;1.50;;;16.50;99.90;;;;;;4937435;29;20059;-82
2022/11/08 14:06:24;;;;;;;4.22;1.95;;;16.50;99.90;;;;;;4933660;29;20100;-82
2022/11/08 14:09:16;;;;;;;7.32;2.58;;;16.50;99.90;;;;;;4917557;29;20056;-81
2022/11/08 14:11:53;;;;;;;9.63;5.07;;;16.40;99.90;;;;;;4914721;29;20080;-79
2022/11/08 14:14:33;;;;;;;11.65;6.00;;;16.40;99.90;;;;;;4918931;29;20491;-81
2022/11/08 14:17:33;;;;;;;12.82;5.90;;;16.40;99.90;;;;;;4916069;29;20058;-81
2022/11/08 14:20:38;;;;;;;8.63;5.07;;;16.30;99.90;;;;;;4919173;29;20048;-81
2022/11/08 14:23:23;;;;;;;7.90;3.92;;;16.30;99.90;;;;;;4916124;29;20092;-82
2022/11/08 14:25:59;;;;;;;5.40;2.50;;;16.30;99.90;;;;;;4918336;29;20173;-81
2022/11/08 14:28:39;;;;;;;7.07;2.42;;;16.30;99.90;;;;;;4919885;29;20135;-82
2022/11/08 14:31:27;;;;;;;3.75;1.90;;;16.20;99.90;;;;;;4918617;29;20059;-81
2022/11/08 14:33:54;;;;;;;4.55;1.88;;;16.20;99.90;;;;;;4916530;29;20489;-81
2022/11/08 14:36:22;;;;;;;3.90;1.92;;;16.20;99.90;;;;;;4916257;29;20062;-81
2022/11/08 14:38:54;;;;;;;7.07;1.83;;;16.10;99.90;;;;;;4914456;29;20054;-82
2022/11/08 14:41:25;;;;;;;6.97;1.42;;;16.10;99.90;;;;;;4922240;29;20040;-80
2022/11/08 14:43:54;;;;;;;3.00;1.42;;;16.00;99.90;;;;;;4915405;29;20127;-82
2022/11/08 14:46:23;;;;;;;4.72;1.80;;;16.00;99.90;;;;;;4916721;29;20123;-83
2022/11/08 14:48:58;;;;;;;8.53;2.00;;;15.90;99.90;;;;;;4902879;29;20052;-82
2022/11/08 14:51:25;;;;;;;5.30;1.95;;;15.90;99.90;;;;;;4915336;29;20439;-82
2022/11/08 14:53:53;;;;;;;4.22;1.55;;;15.90;99.90;;;;;;4912150;29;20067;-82
2022/11/08 14:56:25;;;;;;;4.55;1.55;;;15.90;99.90;;;;;;4917630;29;20048;-83
2022/11/08 14:58:54;;;;;;;6.65;1.90;;;15.90;99.90;;;;;;4916280;29;20066;-82
2022/11/08 15:01:24;;;;;;;4.93;2.13;;;15.80;99.90;;;;;;4918271;29;20044;-82
2022/11/08 15:03:55;;;;;;;;;;;15.90;99.90;;;;;;4918808;29;20044;-82
2022/11/08 15:06:32;;;;;;;3.63;2.08;;;15.80;99.90;;;;;;4917778;29;19931;-82
2022/11/08 15:09:00;;;;;;;5.03;1.80;;;15.80;99.90;;;;;;4909799;29;20049;-81
2022/11/08 15:11:30;;;;;;;2.78;1.75;;;15.70;99.90;;;;;;4915676;29;20048;-83
2022/11/08 15:14:07;;;;;;;3.67;2.58;;;15.60;99.90;;;;;;4915789;29;20049;-81
2022/11/08 15:16:42;;;;;;;4.07;2.13;;;15.60;99.90;;;;;;4916481;29;20111;-81
2022/11/08 15:19:41;;;;;;;4.30;1.90;;;15.60;99.90;;;;;;4909989;29;20136;-82
2022/11/08 15:22:27;;;;;;;6.82;2.00;;;15.50;99.90;;;;;;4917832;29;20052;-81
2022/11/08 15:25:22;;;;;;;6.70;2.15;;;15.40;99.90;;;;;;4914518;29;20419;-81
2022/11/08 15:27:53;;;;;;;5.30;2.50;;;15.30;99.90;;;;;;4918762;29;20150;-81
2022/11/08 15:30:22;;;;;;;10.35;4.20;;;15.30;99.90;;;;;;4919915;29;20062;-81
2022/11/08 15:32:49;;;;;;;6.15;3.45;;;15.20;99.90;;;;;;4919852;29;20056;-81
2022/11/08 15:35:31;;;;;;;7.18;2.78;;;15.10;99.90;;;;;;4919498;29;20056;-80
2022/11/08 15:38:00;;;;;;;8.43;2.58;;;15.10;99.90;;;;;;4905091;29;20044;-81
2022/11/08 15:40:30;;;;;;;7.20;2.70;;;15.10;99.90;;;;;;4919726;29;20140;-83
2022/11/08 15:42:59;;;;;;;5.90;2.30;;;15.00;99.90;;;;;;4918394;29;20131;-82
2022/11/08 15:45:31;;;;;;;1.77;1.52;;;14.90;99.90;;;;;;4919573;29;20052;-82
2022/11/08 15:48:20;;;;;;;4.20;2.10;;;14.90;99.90;;;;;;4917806;29;20052;-82
2022/11/08 15:50:48;;;;;;;2.85;1.90;;;14.80;99.90;;;;;;4919880;29;20048;-79
2022/11/08 15:53:15;;;;;;;11.43;2.03;;;14.70;99.90;;;;;;4917915;29;20109;-80
2022/11/08 15:55:59;;;;;;;3.17;1.73;;;14.70;99.90;;;;;;4932739;29;20135;-81
2022/11/08 15:58:31;;;;;;;3.70;1.98;;;14.60;99.90;;;;;;4918193;29;20084;-81
2022/11/08 16:01:00;;;;;;;6.97;2.08;;;14.60;99.90;;;;;;4919628;29;20048;-82
2022/11/08 16:03:27;;;;;;;4.85;3.03;;;14.50;99.90;;;;;;4919624;29;20127;-83
2022/11/08 16:05:55;;;;;;;6.68;2.58;;;14.40;99.90;;;;;;4917559;29;20054;-83
2022/11/08 16:08:22;;;;;;;4.18;2.42;;;14.30;99.90;;;;;;4917661;29;20142;-82
2022/11/08 16:10:52;;;;;;;4.22;2.05;;;14.30;99.90;;;;;;4914809;29;20103;-81
2022/11/08 16:13:30;;;;;;;3.10;2.20;;;14.20;99.90;;;;;;4918968;29;20072;-82
2022/11/08 16:15:58;;;;;;;4.05;2.63;;;14.10;99.90;;;;;;4908631;29;20074;-82
2022/11/08 16:18:25;;;;;;;3.05;2.30;;;14.00;99.90;;;;;;4918670;29;20048;-84
2022/11/08 16:20:52;;;;;;;3.95;2.60;;;14.00;99.90;;;;;;4916591;29;20116;-82
2022/11/08 16:23:19;;;;;;;4.15;2.10;;;13.90;99.90;;;;;;4918651;29;20406;-82
2022/11/08 16:25:49;;;;;;;5.80;2.35;;;13.80;99.90;;;;;;4918702;29;20078;-82
2022/11/08 16:28:15;;;;;;;;;;;13.80;99.90;;;;;;4918443;29;20048;-82
2022/11/08 16:30:45;;;;;;;3.38;2.30;;;13.70;99.90;;;;;;4918393;29;19923;-82
2022/11/08 16:33:19;;;;;;;11.52;3.78;;;13.60;99.90;;;;;;4919852;29;20052;-81
2022/11/08 16:35:47;;;;;;;7.93;4.25;;;13.60;99.90;;;;;;4922221;29;20070;-81
2022/11/08 16:38:14;;;;;;;5.53;3.05;;;13.50;99.90;;;;;;4920268;29;20050;-81
2022/11/08 16:40:41;;;;;;;4.45;2.97;;;13.50;99.90;;;;;;4921982;29;20052;-80
2022/11/08 16:43:11;;;;;;;5.82;2.85;;;13.50;99.90;;;;;;4921533;29;20048;-81
2022/11/08 16:45:38;;;;;;;5.60;3.00;;;13.40;99.90;;;;;;4921472;29;20056;-83
2022/11/08 16:48:26;;;;;;;7.65;3.03;;;13.40;99.90;;;;;;4922797;29;20060;-81
2022/11/08 16:51:01;;;;;;;5.65;3.30;;;13.30;99.90;;;;;;4920561;29;20134;-81
2022/11/08 16:53:28;;;;;;;6.28;3.20;;;13.30;99.90;;;;;;4920980;29;20063;-81
2022/11/08 16:55:56;;;;;;;6.25;3.75;;;13.20;99.90;;;;;;4922245;29;20056;-82
2022/11/08 16:58:23;;;;;;;6.60;3.28;;;13.20;99.90;;;;;;4922193;29;20391;-83
2022/11/08 17:00:50;;;;;;;4.97;3.30;;;13.20;99.90;;;;;;4921570;29;20072;-83
2022/11/08 17:03:23;;;;;;;6.05;3.15;;;13.10;99.90;;;;;;4922636;29;20060;-82
2022/11/08 17:05:51;;;;;;;6.00;3.15;;;13.10;99.90;;;;;;4922451;29;20132;-82
2022/11/08 17:08:17;;;;;;;7.65;3.75;;;13.10;99.90;;;;;;4921478;29;20614;-81
2022/11/08 17:10:45;;;;;;;8.82;3.88;;;13.10;99.90;;;;;;4922539;29;20189;-83
2022/11/08 17:13:16;;;;;;;8.88;3.55;;;13.00;99.90;;;;;;4923046;29;20052;-82
2022/11/08 17:15:44;;;;;;;7.43;3.50;;;13.00;99.90;;;;;;4919736;29;20131;-83
2022/11/08 17:18:13;;;;;;;6.75;3.63;;;13.00;99.90;;;;;;4922841;29;20099;-82
2022/11/08 17:20:40;;;;;;;5.70;3.55;;;13.00;99.90;;;;;;4923117;29;20078;-82
2022/11/08 17:23:08;;;;;;;7.60;3.67;;;13.00;99.90;;;;;;4922131;29;20056;-82
2022/11/08 17:25:36;;;;;;;7.75;3.22;;;13.00;99.90;;;;;;4922043;29;20148;-81
2022/11/08 17:28:03;;;;;;;5.47;3.13;;;13.00;99.90;;;;;;4921909;29;20066;-82
2022/11/08 17:30:30;;;;;;;8.73;4.00;;;13.00;99.90;;;;;;4926834;29;20060;-81
2022/11/08 17:32:57;;;;;;;6.90;2.97;;;13.00;99.90;;;;;;4927472;29;20074;-81
2022/11/08 17:35:47;;;;;;;5.18;3.10;;;13.00;99.90;;;;;;4926410;29;20052;-81
2022/11/08 17:38:14;;;;;;;4.97;2.70;;;13.00;99.90;;;;;;4928560;29;20048;-80
2022/11/08 17:40:41;;;;;;;4.90;3.22;;;13.00;99.90;;;;;;4921159;29;20072;-78
2022/11/08 17:43:08;;;;;;;4.80;2.65;;;13.00;99.90;;;;;;4920746;29;20482;-80
2022/11/08 17:45:34;;;;;;;5.85;2.47;;;13.00;99.90;;;;;;4919839;29;20062;-82
2022/11/08 17:48:01;;;;;;;2.45;1.75;;;13.00;99.90;;;;;;4920841;29;20120;-81
2022/11/08 17:50:28;;;;;;;4.50;2.13;;;13.00;99.90;;;;;;4921083;29;20138;-83
2022/11/08 17:52:55;;;;;;;9.38;2.75;;;13.00;99.90;;;;;;4920511;29;20048;-82
2022/11/08 17:55:21;;;;;;;3.50;2.13;;;13.00;99.90;;;;;;4920625;29;20052;-82
2022/11/08 17:57:48;;;;;;;4.53;2.10;;;13.00;99.90;;;;;;4920508;29;20052;-80
2022/11/08 18:00:15;;;;;;;4.50;2.72;;;13.00;99.90;;;;;;4921043;29;20048;-82
2022/11/08 18:02:42;;;;;;;5.45;2.53;;;13.00;99.90;;;;;;4920953;29;20060;-80
2022/11/08 18:05:08;;;;;;;6.43;2.65;;;13.00;99.90;;;;;;4919189;29;20487;-80
2022/11/08 18:07:37;;;;;;;5.35;2.95;;;13.00;99.90;;;;;;4920733;29;20067;-81
2022/11/08 18:10:05;;;;;;;7.28;3.47;;;12.90;99.90;;;;;;4920751;29;20518;-81
2022/11/08 18:12:32;;;;;;;4.95;3.00;;;12.90;99.90;;;;;;4920945;29;20056;-81
2022/11/08 18:14:59;;;;;;;6.78;3.00;;;12.90;99.90;;;;;;4919204;29;20111;-82
2022/11/08 18:17:26;;;;;;;6.15;2.05;;;12.80;99.90;;;;;;4920495;29;20434;-80
2022/11/08 18:19:53;;;;;;;5.28;1.80;;;12.80;99.90;;;;;;4920605;29;20048;-80
2022/11/08 18:22:20;;;;;;;5.05;2.50;;;12.70;99.90;;;;;;4920870;29;20059;-81
2022/11/08 18:24:46;;;;;;;4.68;2.30;;;12.70;99.90;;;;;;4916967;29;20134;-80
2022/11/08 18:27:16;;;;;;;3.60;2.58;;;12.70;99.90;;;;;;4920558;29;20048;-81
2022/11/08 18:29:43;;;;;;;3.92;2.30;;;12.70;99.90;;;;;;4919433;29;20050;-81
2022/11/08 18:32:09;;;;;;;3.08;2.03;;;12.70;99.90;;;;;;4921431;29;20476;-81